Terminal Aerodrome Forecast
Issued by NWS

Home | Current Version | Previous Version | Text Only | Print | Product List | Glossary On
Versions: 1 2 3 4 5 6 7 8 9 10 11 12 13 14 15 16 17 18 19 20 21 22 23 24 25 26 27 28 29 30 31 32 33 34 35 36 37 38 39 40 41 42 43 44
000
FTUS46 KOTX 191601 AAA
TAFMWH
TAF AMD
KMWH 191601Z 1916/2012 00000KT 2SM -RA BR SCT003 SCT040 OVC050
      TEMPO 1916/1918 1SM -RA BR BKN003 OVC050
     FM191800 22008KT 3SM BR OVC007
     FM200100 23005KT 6SM BR BKN009
     FM200600 15004KT P6SM OVC050=

USA.gov is the U.S. government's official web portal to all federal, state and local government web resources and services.